createdAt,value
2019-04-03T00:01:58.622Z,4.60
2019-04-03T00:04:47.341Z,3.70
2019-04-03T00:07:36.461Z,4.90
2019-04-03T00:10:25.324Z,4.97
2019-04-03T00:13:14.364Z,5.00
2019-04-03T00:16:03.016Z,5.60
2019-04-03T00:18:52.108Z,5.03
2019-04-03T00:21:40.804Z,5.70
2019-04-03T00:24:30.160Z,5.60
2019-04-03T00:27:18.768Z,6.00
2019-04-03T00:30:09.727Z,6.67
2019-04-03T00:32:58.159Z,7.27
2019-04-03T00:35:46.314Z,6.37
2019-04-03T00:38:35.105Z,7.07
2019-04-03T00:41:24.735Z,6.33
2019-04-03T00:44:13.509Z,6.70
2019-04-03T00:47:02.477Z,6.40
2019-04-03T00:49:51.109Z,6.10
2019-04-03T00:52:39.677Z,7.43
2019-04-03T00:55:28.256Z,6.23
2019-04-03T00:58:36.879Z,6.60
2019-04-03T01:01:26.538Z,6.50
2019-04-03T01:04:15.569Z,6.80
2019-04-03T01:07:04.216Z,6.20
2019-04-03T01:09:52.848Z,6.10
2019-04-03T01:12:41.708Z,6.73
2019-04-03T01:15:31.607Z,6.50
2019-04-03T01:18:21.198Z,5.63
2019-04-03T01:21:09.733Z,6.10
2019-04-03T01:23:58.429Z,6.17
2019-04-03T01:26:47.154Z,6.40
2019-04-03T01:29:36.173Z,6.50
2019-04-03T01:32:24.754Z,6.40
2019-04-03T01:35:13.729Z,6.20
2019-04-03T01:38:01.880Z,6.53
2019-04-03T01:40:51.182Z,5.90
2019-04-03T01:43:40.041Z,6.33
2019-04-03T01:46:29.064Z,5.93
2019-04-03T01:49:17.652Z,6.23
2019-04-03T01:52:06.867Z,6.83
2019-04-03T01:54:56.208Z,7.27
2019-04-03T01:57:44.879Z,5.70
2019-04-03T02:00:32.937Z,6.50
2019-04-03T02:03:21.723Z,6.30
2019-04-03T02:06:10.442Z,6.70
2019-04-03T02:08:59.485Z,6.23
2019-04-03T02:11:49.395Z,5.50
2019-04-03T02:14:38.932Z,6.30
2019-04-03T02:17:27.476Z,5.87
2019-04-03T02:20:15.871Z,6.20
2019-04-03T02:23:04.451Z,5.70
2019-04-03T02:25:53.184Z,6.70
2019-04-03T02:28:41.941Z,6.60
2019-04-03T02:31:30.208Z,5.30
2019-04-03T02:34:18.969Z,6.40
2019-04-03T02:37:07.698Z,7.03
2019-04-03T02:40:00.114Z,6.80
2019-04-03T02:42:46.953Z,6.13
2019-04-03T02:45:35.933Z,6.47
2019-04-03T02:48:24.317Z,6.93
2019-04-03T02:51:13.297Z,6.90
2019-04-03T02:54:03.134Z,6.80
2019-04-03T02:56:52.003Z,6.80
2019-04-03T02:59:40.122Z,6.50
2019-04-03T03:02:28.903Z,6.13
2019-04-03T03:05:17.995Z,6.53
2019-04-03T03:08:09.151Z,6.27
2019-04-03T03:10:57.681Z,6.30
2019-04-03T03:13:46.588Z,6.47
2019-04-03T03:16:35.362Z,6.83
2019-04-03T03:19:24.932Z,6.63
2019-04-03T03:22:16.942Z,6.57
2019-04-03T03:25:05.328Z,6.33
2019-04-03T03:27:54.582Z,6.70
2019-04-03T03:30:54.397Z,6.07
2019-04-03T03:33:37.461Z,5.77
2019-04-03T03:36:25.720Z,5.80
2019-04-03T03:39:13.285Z,5.67
2019-04-03T03:42:02.112Z,6.30
2019-04-03T03:44:50.591Z,6.47
2019-04-03T03:47:39.246Z,6.40
2019-04-03T03:50:27.194Z,6.90
2019-04-03T03:53:16.122Z,6.70
2019-04-03T03:56:05.232Z,6.87
2019-04-03T03:58:54.165Z,6.00
2019-04-03T04:01:42.770Z,7.47
2019-04-03T04:04:31.733Z,5.97
2019-04-03T04:07:20.193Z,6.13
2019-04-03T04:10:09.688Z,5.80
2019-04-03T04:13:00.277Z,6.40
2019-04-03T04:15:49.202Z,6.40
2019-04-03T04:18:39.434Z,6.60
2019-04-03T04:21:28.067Z,6.43
2019-04-03T04:24:18.556Z,6.43
2019-04-03T04:27:07.012Z,5.77
2019-04-03T04:29:56.779Z,5.40
2019-04-03T04:32:46.505Z,5.80
2019-04-03T04:35:36.366Z,5.90
2019-04-03T04:38:26.828Z,5.43
2019-04-03T04:41:15.611Z,6.60
2019-04-03T04:44:04.781Z,6.50
2019-04-03T04:46:53.086Z,5.70
2019-04-03T04:49:41.451Z,6.10
2019-04-03T04:52:30.563Z,5.93
2019-04-03T04:55:19.106Z,5.97
2019-04-03T04:58:07.658Z,5.90
2019-04-03T05:00:56.687Z,6.27
2019-04-03T05:03:45.597Z,6.67
2019-04-03T05:06:34.416Z,6.43
2019-04-03T05:09:22.740Z,6.70
2019-04-03T05:12:11.334Z,6.10
2019-04-03T05:15:00.428Z,6.50
2019-04-03T05:17:50.635Z,5.75
2019-04-03T05:20:39.648Z,6.00
2019-04-03T05:23:29.089Z,5.67
2019-04-03T05:26:17.761Z,5.90
2019-04-03T05:29:08.571Z,5.93
2019-04-03T05:31:57.385Z,5.70
2019-04-03T05:34:46.526Z,6.50
2019-04-03T05:37:35.769Z,6.40
2019-04-03T05:40:26.152Z,6.90
2019-04-03T05:43:14.440Z,6.53
2019-04-03T05:46:03.843Z,6.60
2019-04-03T05:48:52.979Z,7.37
2019-04-03T05:51:41.883Z,7.40
2019-04-03T05:54:30.693Z,7.08
2019-04-03T05:57:19.774Z,7.10
2019-04-03T06:00:08.868Z,7.40
2019-04-03T06:02:58.187Z,6.80
2019-04-03T06:05:47.300Z,7.28
2019-04-03T06:08:35.930Z,6.83
2019-04-03T06:11:24.846Z,7.20
2019-04-03T06:14:13.090Z,8.03
2019-04-03T06:17:02.108Z,6.90
2019-04-03T06:19:51.283Z,6.93
2019-04-03T06:22:40.351Z,7.53
2019-04-03T06:25:30.475Z,7.50
2019-04-03T06:28:19.414Z,8.30
2019-04-03T06:31:08.898Z,8.23
2019-04-03T06:33:57.655Z,8.00
2019-04-03T06:36:46.454Z,7.43
2019-04-03T06:39:35.653Z,7.40
2019-04-03T06:42:24.893Z,8.40
2019-04-03T06:45:15.560Z,8.43
2019-04-03T06:48:05.110Z,8.70
2019-04-03T06:50:54.525Z,8.37
2019-04-03T06:53:43.504Z,10.27
2019-04-03T06:56:32.649Z,9.90
2019-04-03T06:59:21.610Z,9.20
2019-04-03T07:02:10.381Z,9.25
2019-04-03T07:05:02.359Z,8.70
2019-04-03T07:07:49.799Z,9.63
2019-04-03T07:10:40.240Z,9.33
2019-04-03T07:13:29.712Z,9.70
2019-04-03T07:16:19.399Z,10.40
2019-04-03T07:19:08.688Z,9.10
2019-04-03T07:21:57.542Z,9.03
2019-04-03T07:24:46.053Z,10.37
2019-04-03T07:27:36.596Z,9.70
2019-04-03T07:30:25.107Z,9.90
2019-04-03T07:33:13.946Z,10.73
2019-04-03T07:36:02.670Z,10.20
2019-04-03T07:38:51.983Z,9.03
2019-04-03T07:41:41.706Z,9.63
2019-04-03T07:44:31.144Z,9.77
2019-04-03T07:47:19.577Z,10.10
2019-04-03T07:50:11.241Z,9.47
2019-04-03T07:52:58.835Z,10.33
2019-04-03T07:55:47.144Z,9.33
2019-04-03T07:58:35.936Z,9.10
2019-04-03T08:01:24.381Z,9.00
2019-04-03T08:04:15.749Z,9.67
2019-04-03T08:07:03.570Z,9.85
2019-04-03T08:09:52.737Z,10.30
2019-04-03T08:12:41.800Z,10.10
2019-04-03T08:15:30.373Z,9.90
2019-04-03T08:18:21.500Z,9.30
2019-04-03T08:21:10.716Z,9.67
2019-04-03T08:23:59.513Z,10.43
2019-04-03T08:26:50.554Z,10.70
2019-04-03T08:29:39.004Z,9.27
2019-04-03T08:32:28.649Z,10.07
2019-04-03T08:35:22.280Z,9.17
2019-04-03T08:38:08.314Z,10.23
2019-04-03T08:40:58.448Z,10.87
2019-04-03T08:43:47.201Z,11.30
2019-04-03T08:46:35.801Z,10.70
2019-04-03T08:49:26.310Z,10.07
2019-04-03T08:52:15.853Z,9.53
2019-04-03T08:55:06.413Z,10.23
2019-04-03T08:57:55.270Z,11.13
2019-04-03T09:00:44.131Z,10.90
2019-04-03T09:03:32.420Z,10.27
2019-04-03T09:06:22.411Z,11.47
2019-04-03T09:09:12.126Z,10.50
2019-04-03T09:12:00.941Z,10.20
2019-04-03T09:14:49.775Z,10.53
2019-04-03T09:17:38.264Z,11.27
2019-04-03T09:20:27.048Z,10.03
2019-04-03T09:23:16.138Z,10.43
2019-04-03T09:26:04.532Z,9.67
2019-04-03T09:28:53.388Z,10.40
2019-04-03T09:31:42.070Z,9.97
2019-04-03T09:34:33.909Z,9.43
2019-04-03T09:37:21.086Z,9.57
2019-04-03T09:40:09.891Z,9.90
2019-04-03T09:42:58.564Z,8.70
2019-04-03T09:45:48.077Z,9.30
2019-04-03T09:48:37.634Z,8.90
2019-04-03T09:51:27.271Z,9.23
2019-04-03T09:54:16.176Z,9.00
2019-04-03T09:57:05.710Z,9.37
2019-04-03T09:59:54.843Z,10.07
2019-04-03T10:02:43.534Z,9.80
2019-04-03T10:05:31.755Z,9.10
2019-04-03T10:08:22.019Z,9.60
2019-04-03T10:11:10.961Z,9.67
2019-04-03T10:13:59.727Z,9.00
2019-04-03T10:16:48.654Z,7.57
2019-04-03T10:19:37.219Z,7.87
2019-04-03T10:22:26.326Z,8.63
2019-04-03T10:25:16.691Z,8.90
2019-04-03T10:28:06.829Z,8.50
2019-04-03T10:30:55.716Z,8.83
2019-04-03T10:33:44.308Z,8.60
2019-04-03T10:36:32.767Z,8.13
2019-04-03T10:39:22.209Z,8.80
2019-04-03T10:42:11.354Z,7.70
2019-04-03T10:44:59.580Z,9.50
2019-04-03T10:47:48.274Z,7.07
2019-04-03T10:50:38.062Z,6.97
2019-04-03T10:53:27.549Z,6.70
2019-04-03T10:56:16.672Z,6.60
2019-04-03T10:59:11.380Z,6.30
2019-04-03T11:01:55.440Z,7.00
2019-04-03T11:04:44.275Z,7.10
2019-04-03T11:07:32.960Z,6.97
2019-04-03T11:10:23.373Z,7.07
2019-04-03T11:13:11.395Z,6.93
2019-04-03T11:15:59.726Z,7.60
2019-04-03T11:18:58.079Z,7.53
2019-04-03T11:21:38.710Z,6.00
2019-04-03T11:24:27.810Z,5.40
2019-04-03T11:27:17.373Z,4.47
2019-04-03T11:30:10.847Z,4.93
2019-04-03T11:32:57.397Z,5.50
2019-04-03T11:35:46.201Z,5.20
2019-04-03T11:38:35.088Z,5.47
2019-04-03T11:41:24.459Z,5.80
2019-04-03T11:44:13.352Z,6.07
2019-04-03T11:47:02.664Z,6.70
2019-04-03T11:49:52.515Z,6.50
2019-04-03T11:52:41.048Z,5.37
2019-04-03T11:55:29.368Z,4.40
2019-04-03T11:58:19.793Z,3.90
2019-04-03T12:01:09.142Z,4.07
2019-04-03T12:03:57.909Z,3.00
2019-04-03T12:06:47.013Z,3.80
2019-04-03T12:09:35.966Z,3.63
2019-04-03T12:12:24.819Z,4.00
2019-04-03T12:15:16.409Z,3.20
2019-04-03T12:18:04.631Z,3.67
2019-04-03T12:20:53.981Z,3.37
2019-04-03T12:23:43.122Z,2.83
2019-04-03T12:26:32.356Z,3.83
2019-04-03T12:29:23.016Z,3.33
2019-04-03T12:32:11.936Z,3.50
2019-04-03T12:35:01.051Z,2.87
2019-04-03T12:37:51.104Z,3.47
2019-04-03T12:40:42.237Z,2.77
2019-04-03T12:43:31.146Z,4.30
2019-04-03T12:46:21.026Z,4.40
2019-04-03T12:49:09.664Z,3.90
2019-04-03T12:51:58.931Z,3.80
2019-04-03T12:54:48.770Z,3.93
2019-04-03T12:57:39.171Z,3.90
2019-04-03T13:00:27.506Z,3.10
2019-04-03T13:03:15.930Z,3.07
2019-04-03T13:06:04.925Z,2.80
2019-04-03T13:08:53.871Z,1.90
2019-04-03T13:11:42.308Z,1.90
2019-04-03T13:14:32.653Z,2.10
2019-04-03T13:17:21.940Z,1.53
2019-04-03T13:20:11.397Z,1.80
2019-04-03T13:23:00.329Z,1.37
2019-04-03T13:25:48.973Z,1.30
2019-04-03T13:28:40.250Z,1.70
2019-04-03T13:31:28.314Z,1.70
2019-04-03T13:34:17.066Z,1.30
2019-04-03T13:37:06.312Z,1.37
2019-04-03T13:39:54.341Z,1.00
2019-04-03T13:42:43.416Z,1.23
2019-04-03T13:45:32.660Z,1.43
2019-04-03T13:48:22.015Z,1.10
2019-04-03T13:51:12.476Z,1.20
2019-04-03T13:54:02.098Z,1.10
2019-04-03T13:56:53.325Z,0.93
2019-04-03T13:59:41.558Z,1.20
2019-04-03T14:02:30.919Z,1.30
2019-04-03T14:05:20.942Z,1.13
2019-04-03T14:08:12.122Z,1.20
2019-04-03T14:11:00.918Z,1.17
2019-04-03T14:13:50.040Z,1.23
2019-04-03T14:16:38.796Z,0.90
2019-04-03T14:19:27.467Z,1.40
2019-04-03T14:22:16.127Z,1.50
2019-04-03T14:25:17.487Z,1.30
2019-04-03T14:27:55.124Z,2.13
2019-04-03T14:30:44.668Z,1.47
2019-04-03T14:33:42.934Z,1.27
2019-04-03T14:36:26.491Z,1.40
2019-04-03T14:39:13.920Z,1.07
2019-04-03T14:42:03.111Z,1.27
2019-04-03T14:44:52.286Z,1.40
2019-04-03T14:47:41.829Z,1.17
2019-04-03T14:50:30.658Z,1.53
2019-04-03T14:53:20.271Z,1.50
2019-04-03T14:56:10.513Z,1.43
2019-04-03T14:58:59.922Z,1.40
2019-04-03T15:01:51.222Z,1.63
2019-04-03T15:04:39.360Z,1.27
2019-04-03T15:07:28.578Z,1.50
2019-04-03T15:10:17.586Z,3.33
2019-04-03T15:13:06.205Z,1.37
2019-04-03T15:15:54.829Z,2.60
2019-04-03T15:18:43.776Z,1.30
2019-04-03T15:21:32.863Z,1.80
2019-04-03T15:24:21.303Z,1.50
2019-04-03T15:27:10.224Z,1.43
2019-04-03T15:29:59.143Z,1.40
2019-04-03T15:32:48.886Z,1.77
2019-04-03T15:35:38.476Z,1.40
2019-04-03T15:38:27.772Z,1.60
2019-04-03T15:41:16.604Z,1.60
2019-04-03T15:44:05.963Z,1.60
2019-04-03T15:46:55.029Z,1.50
2019-04-03T15:49:43.561Z,1.70
2019-04-03T15:52:32.614Z,1.23
2019-04-03T15:55:23.809Z,1.50
2019-04-03T15:58:11.665Z,1.50
2019-04-03T16:01:00.569Z,1.63
2019-04-03T16:03:50.501Z,2.00
2019-04-03T16:06:39.671Z,1.67
2019-04-03T16:09:28.875Z,1.57
2019-04-03T16:12:17.168Z,1.60
2019-04-03T16:15:08.643Z,2.60
2019-04-03T16:17:56.738Z,1.53
2019-04-03T16:20:46.737Z,1.77
2019-04-03T16:23:38.151Z,1.57
2019-04-03T16:26:26.712Z,1.60
2019-04-03T16:29:15.390Z,1.47
2019-04-03T16:32:04.716Z,2.00
2019-04-03T16:34:54.194Z,1.80
2019-04-03T16:37:43.088Z,1.73
2019-04-03T16:40:32.348Z,1.57
2019-04-03T16:43:23.011Z,1.80
2019-04-03T16:46:11.709Z,1.00
2019-04-03T16:49:00.093Z,1.40
2019-04-03T16:51:49.310Z,1.70
2019-04-03T16:54:38.350Z,2.10
2019-04-03T16:57:27.841Z,1.80
2019-04-03T17:00:16.944Z,1.87
2019-04-03T17:03:05.579Z,1.17
2019-04-03T17:05:54.760Z,1.70
2019-04-03T17:08:43.954Z,1.57
2019-04-03T17:11:33.519Z,1.70
2019-04-03T17:14:24.405Z,1.63
2019-04-03T17:17:14.725Z,1.40
2019-04-03T17:20:04.630Z,1.70
2019-04-03T17:22:53.564Z,1.67
2019-04-03T17:25:48.142Z,1.53
2019-04-03T17:28:33.654Z,1.50
2019-04-03T17:31:23.870Z,1.27
2019-04-03T17:34:12.684Z,1.60
2019-04-03T17:37:01.871Z,1.70
2019-04-03T17:39:52.436Z,2.00
2019-04-03T17:42:41.104Z,1.53
2019-04-03T17:45:30.119Z,1.70
2019-04-03T17:48:19.332Z,1.90
2019-04-03T17:51:08.252Z,1.70
2019-04-03T17:53:57.577Z,1.80
2019-04-03T17:56:46.791Z,1.60
2019-04-03T17:59:35.739Z,1.77
2019-04-03T18:02:25.075Z,1.70
2019-04-03T18:05:16.012Z,1.97
2019-04-03T18:08:05.486Z,1.60
2019-04-03T18:10:54.871Z,1.63
2019-04-03T18:13:43.452Z,1.73
2019-04-03T18:16:32.294Z,2.20
2019-04-03T18:19:21.857Z,2.00
2019-04-03T18:22:10.876Z,2.50
2019-04-03T18:25:01.047Z,2.00
2019-04-03T18:27:50.309Z,1.83
2019-04-03T18:30:38.772Z,2.10
2019-04-03T18:33:27.968Z,1.80
2019-04-03T18:36:16.590Z,2.00
2019-04-03T18:39:09.711Z,1.60
2019-04-03T18:42:01.725Z,1.80
2019-04-03T18:44:49.968Z,2.17
2019-04-03T18:47:41.391Z,1.70
2019-04-03T18:50:29.292Z,1.80
2019-04-03T18:53:18.763Z,2.17
2019-04-03T18:56:08.413Z,1.90
2019-04-03T18:58:57.449Z,1.90
2019-04-03T19:01:46.666Z,1.60
2019-04-03T19:04:37.679Z,1.73
2019-04-03T19:07:26.979Z,1.80
2019-04-03T19:10:18.196Z,1.60
2019-04-03T19:13:06.625Z,1.60
2019-04-03T19:15:55.721Z,1.60
2019-04-03T19:18:44.343Z,2.07
2019-04-03T19:21:33.538Z,2.40
2019-04-03T19:24:24.455Z,2.27
2019-04-03T19:27:12.748Z,2.33
2019-04-03T19:30:01.963Z,1.70
2019-04-03T19:32:50.573Z,2.17
2019-04-03T19:35:38.707Z,2.00
2019-04-03T19:38:27.516Z,1.90
2019-04-03T19:41:16.646Z,1.90
2019-04-03T19:44:05.994Z,1.73
2019-04-03T19:46:54.603Z,2.77
2019-04-03T19:49:43.204Z,3.20
2019-04-03T19:52:32.158Z,6.50
2019-04-03T19:55:23.273Z,6.07
2019-04-03T19:58:11.248Z,6.17
2019-04-03T20:01:03.326Z,6.37
2019-04-03T20:03:50.216Z,6.03
2019-04-03T20:06:38.529Z,6.57
2019-04-03T20:09:26.767Z,6.65
2019-04-03T20:12:15.833Z,7.80
2019-04-03T20:15:05.695Z,7.80
2019-04-03T20:17:55.480Z,7.80
2019-04-03T20:20:44.871Z,7.60
2019-04-03T20:23:33.917Z,7.75
2019-04-03T20:26:22.139Z,8.15
2019-04-03T20:29:11.000Z,8.43
2019-04-03T20:31:59.873Z,7.45
2019-04-03T20:34:48.879Z,7.20
2019-04-03T20:37:37.729Z,8.60
2019-04-03T20:40:26.186Z,8.43
2019-04-03T20:43:15.224Z,8.80
2019-04-03T20:46:03.722Z,7.95
2019-04-03T20:48:52.394Z,8.75
2019-04-03T20:51:41.188Z,7.70
2019-04-03T20:54:29.822Z,7.03
2019-04-03T20:57:18.604Z,7.25
2019-04-03T21:00:11.924Z,6.53
2019-04-03T21:03:01.019Z,6.95
2019-04-03T21:05:49.910Z,7.00
2019-04-03T21:08:38.057Z,7.42
2019-04-03T21:11:26.471Z,5.97
2019-04-03T21:14:15.271Z,5.80
2019-04-03T21:17:04.330Z,6.87
2019-04-03T21:19:52.771Z,6.20
2019-04-03T21:22:41.531Z,6.70
2019-04-03T21:25:30.285Z,6.70
2019-04-03T21:28:18.900Z,5.90
2019-04-03T21:31:07.699Z,6.00
2019-04-03T21:33:56.481Z,5.97
2019-04-03T21:37:05.291Z,5.40
2019-04-03T21:39:54.250Z,5.65
2019-04-03T21:42:43.185Z,5.35
2019-04-03T21:45:32.108Z,5.35
2019-04-03T21:48:20.923Z,5.65
2019-04-03T21:51:09.453Z,5.40
2019-04-03T21:53:58.137Z,4.75
2019-04-03T21:56:46.806Z,5.20
2019-04-03T21:59:35.400Z,5.67
2019-04-03T22:02:24.068Z,4.65
2019-04-03T22:05:13.149Z,5.85
2019-04-03T22:08:02.014Z,5.17
2019-04-03T22:10:51.505Z,4.75
2019-04-03T22:13:39.998Z,4.15
2019-04-03T22:16:28.835Z,5.35
2019-04-03T22:19:17.849Z,5.67
2019-04-03T22:22:06.316Z,5.33
2019-04-03T22:24:55.000Z,5.45
2019-04-03T22:27:43.916Z,5.80
2019-04-03T22:30:32.660Z,4.90
2019-04-03T22:33:21.440Z,5.03
2019-04-03T22:36:09.744Z,4.87
2019-04-03T22:38:58.143Z,4.85
2019-04-03T22:41:46.213Z,4.50
2019-04-03T22:44:35.124Z,4.50
2019-04-03T22:47:25.091Z,3.62
2019-04-03T22:50:14.019Z,4.03
2019-04-03T22:53:02.931Z,4.17
2019-04-03T22:55:51.157Z,4.25
2019-04-03T22:58:39.584Z,3.55
2019-04-03T23:01:29.822Z,4.33
2019-04-03T23:04:19.590Z,3.90
2019-04-03T23:07:08.141Z,3.75
2019-04-03T23:09:57.241Z,3.85
2019-04-03T23:12:46.259Z,3.98
2019-04-03T23:15:35.236Z,3.33
2019-04-03T23:18:24.610Z,3.80
2019-04-03T23:21:13.868Z,4.13
2019-04-03T23:24:02.485Z,3.70
2019-04-03T23:26:51.121Z,3.90
2019-04-03T23:29:39.512Z,4.42
2019-04-03T23:32:28.098Z,3.33
2019-04-03T23:35:16.945Z,3.65
2019-04-03T23:38:05.660Z,4.35
2019-04-03T23:40:54.532Z,3.98
2019-04-03T23:43:43.198Z,3.60
2019-04-03T23:46:32.106Z,3.90
2019-04-03T23:49:20.976Z,3.65
2019-04-03T23:52:09.258Z,3.57
2019-04-03T23:54:57.516Z,3.70
2019-04-03T23:57:46.032Z,3.20
